American Highway — H3AJ — position and weather

sailwx.info

Track history (hours):
 
Tides and Currents Weather Stations Pressure Air Temp Water Temp Dewpoint Dewpoint Depression Visibility Wind Speed Wind Dir Waves Ship Positions

American Highway

Last reported at 2017-Oct-09 08:31 UTC. Time now 2017-Oct-17 17:12 UTC.
Position N 50°49' W 006°11'.
Warning: this ship's position is 8 days out of date.

Length 180 m; draft 8.9 m.

Type: Cargo ship. MMSI: 351124000.

Date/timePositionNaut miles runAvg speedWind from/ knotsBaromVisibWave heightAir tempDewpointWater temp
2017-Oct-09 08:31N 50°49' W 006°11'1014.9
2017-Oct-09 07:52N 50°53' W 005°57'514.7
2017-Oct-09 07:30N 50°55' W 005°50'714.6
2017-Oct-09 07:00N 50°58' W 005°39'714.4
2017-Oct-09 06:30N 51°01' W 005°28'714.2
2017-Oct-09 06:01N 51°04' W 005°18'714.2
2017-Oct-09 05:31N 51°07' W 005°08'714.1
2017-Oct-09 05:00N 51°10' W 004°58'714.1
2017-Oct-09 04:31N 51°13' W 004°48'713.6
2017-Oct-09 04:01N 51°15' W 004°37'714.4
2017-Oct-09 03:31N 51°17' W 004°26'714.6
2017-Oct-09 03:01N 51°17' W 004°15'915.3
2017-Oct-09 02:24N 51°18' W 003°60'1117.0
2017-Oct-09 01:44N 51°19' W 003°42'1218.3
2017-Oct-09 01:04N 51°21' W 003°23'118.8
2017-Oct-09 01:00N 51°21' W 003°21'612.8
2017-Oct-09 00:30N 51°22' W 003°10'917.4
2017-Oct-09 00:01N 51°27' W 002°59'917.8
2017-Oct-08 23:30N 51°30' W 002°46'1 2.9
2017-Oct-08 23:00N 51°30' W 002°44'0 1.0
2017-Oct-08 22:30N 51°30' W 002°43'0 0.0
2017-Oct-08 22:00N 51°30' W 002°43'0 0.0
2017-Oct-08 21:30N 51°30' W 002°43'0 0.0
2017-Oct-08 21:00N 51°30' W 002°43'0 0.0
2017-Oct-08 20:30N 51°30' W 002°43'0 0.0
2017-Oct-08 20:00N 51°30' W 002°43'0 0.0
2017-Oct-08 19:30N 51°30' W 002°43'0 0.0
2017-Oct-08 19:00N 51°30' W 002°43'0 0.0
2017-Oct-08 18:30N 51°30' W 002°43'0 0.0
2017-Oct-08 18:00N 51°30' W 002°43'0 0.0
2017-Oct-08 17:30N 51°30' W 002°43'0 0.0
2017-Oct-08 17:00N 51°30' W 002°43'0 0.0
2017-Oct-08 16:30N 51°30' W 002°43'0 0.0
2017-Oct-08 16:00N 51°30' W 002°43'0 0.0
2017-Oct-08 15:30N 51°30' W 002°43'0 0.0
2017-Oct-08 15:00N 51°30' W 002°43'0 0.0
2017-Oct-08 14:30N 51°30' W 002°43'0 0.0
2017-Oct-08 14:00N 51°30' W 002°43'0 0.0
2017-Oct-08 13:30N 51°30' W 002°43'0 0.0
2017-Oct-08 13:00N 51°30' W 002°43'0 0.0
2017-Oct-08 12:30N 51°30' W 002°43'0 0.0
2017-Oct-08 12:00N 51°30' W 002°43'0 0.0
2017-Oct-08 11:30N 51°30' W 002°43'0 0.0
2017-Oct-08 11:00N 51°30' W 002°43'0 0.0
2017-Oct-08 10:30N 51°30' W 002°43'0 0.0
2017-Oct-08 09:58N 51°30' W 002°43'0 0.0
2017-Oct-08 09:28N 51°30' W 002°43'0 0.0
2017-Oct-08 08:58N 51°30' W 002°43'0 0.0
2017-Oct-08 08:28N 51°30' W 002°43'0 0.0
2017-Oct-08 07:58N 51°30' W 002°43'0 0.0
2017-Oct-08 07:28N 51°30' W 002°43'0 0.3
2017-Oct-08 07:00N 51°30' W 002°43'0 0.7
2017-Oct-08 06:30N 51°30' W 002°43'0 0.8
2017-Oct-08 06:01N 51°30' W 002°44'1 2.0
2017-Oct-08 05:30N 51°30' W 002°46'714.4
2017-Oct-08 05:00N 51°27' W 002°56'713.1
2017-Oct-08 04:31N 51°23' W 003°04'612.2
2017-Oct-08 04:01N 51°21' W 003°14'3411.0
2017-Oct-08 00:58N 51°17' W 004°07'713.1
2017-Oct-08 00:24N 51°15' W 004°18'813.2
2017-Oct-07 23:46N 51°09' W 004°28'313.1
2017-Oct-07 23:30N 51°07' W 004°33'612.4
2017-Oct-07 23:00N 51°03' W 004°40'613.1
2017-Oct-07 22:30N 50°58' W 004°47'713.7
2017-Oct-07 22:00N 50°54' W 004°55'714.2
2017-Oct-07 21:30N 50°49' W 005°04'714.2
2017-Oct-07 21:00N 50°44' W 005°12'714.5
2017-Oct-07 20:30N 50°39' W 005°20'714.8
2017-Oct-07 20:01N 50°34' W 005°29'815.1
2017-Oct-07 19:31N 50°29' W 005°38'815.5
2017-Oct-07 19:00N 50°24' W 005°47'714.8
2017-Oct-07 18:30N 50°18' W 005°53'715.1
2017-Oct-07 18:00N 50°11' W 005°53'815.3
2017-Oct-07 17:30N 50°03' W 005°53'1013.7
2017-Oct-07 16:46N 49°56' W 005°41'414.6
2017-Oct-07 16:28N 49°54' W 005°35'1614.1
2017-Oct-07 15:20N 49°52' W 005°10'514.3
2017-Oct-07 15:00N 49°52' W 005°03'713.6
2017-Oct-07 14:30N 49°52' W 004°52'714.4
2017-Oct-07 14:01N 49°54' W 004°42'915.9
2017-Oct-07 13:28N 49°55' W 004°29'916.3
2017-Oct-07 12:56N 49°56' W 004°15'1116.4
2017-Oct-07 12:15N 49°57' W 003°58'416.5
2017-Oct-07 11:59N 49°58' W 003°51'816.2
2017-Oct-07 11:31N 49°57' W 003°39'815.7
2017-Oct-07 11:01N 49°58' W 003°27'815.1
2017-Oct-07 10:31N 49°59' W 003°15'714.5
2017-Oct-07 10:01N 50°00' W 003°04'713.7
2017-Oct-07 09:30N 50°01' W 002°53'613.0
2017-Oct-07 09:00N 50°02' W 002°43'6813.9
2017-Oct-07 04:08N 50°20' W 001°01'2818.0
2017-Oct-07 02:35N 50°27' W 000°19'117.4
2017-Oct-07 02:31N 50°27' W 000°17'916.9
2017-Oct-07 02:00N 50°30' W 000°04'816.6
2017-Oct-07 01:30N 50°32' E 000°08'816.2
2017-Oct-07 01:00N 50°34' E 000°20'815.8
2017-Oct-07 00:30N 50°36' E 000°32'815.1
2017-Oct-07 00:01N 50°40' E 000°43'714.6
2017-Oct-06 23:30N 50°44' E 000°52'714.4
2017-Oct-06 23:00N 50°48' E 001°02'1014.5
2017-Oct-06 22:18N 50°54' E 001°15'515.3
2017-Oct-06 21:58N 50°57' E 001°21'816.9
2017-Oct-06 21:30N 51°03' E 001°30'918.5
2017-Oct-06 21:01N 51°10' E 001°40'918.6
2017-Oct-06 20:31N 51°17' E 001°48'918.3
2017-Oct-06 20:01N 51°25' E 001°56'917.5
2017-Oct-06 19:30N 51°31' E 002°06'917.0
2017-Oct-06 19:00N 51°37' E 002°16'11114.4
2017-Oct-06 11:16N 53°04' E 004°10'415.1
2017-Oct-06 10:59N 53°06' E 004°15'815.3
2017-Oct-06 10:29N 53°12' E 004°24'1315.3
2017-Oct-06 09:40N 53°23' E 004°34'315.0
2017-Oct-06 09:30N 53°25' E 004°36'713.9
2017-Oct-06 09:00N 53°29' E 004°45'713.3
2017-Oct-06 08:31N 53°32' E 004°55'612.6
2017-Oct-06 08:00N 53°34' E 005°05'712.1
2017-Oct-06 07:28N 53°36' E 005°15'9411.7
2017-Oct-05 23:27N 53°52' E 007°52'512.1
2017-Oct-05 23:00N 53°51' E 008°00'612.2
2017-Oct-05 22:30N 53°48' E 008°09'612.2
2017-Oct-05 22:00N 53°44' E 008°16'611.9
2017-Oct-05 21:30N 53°39' E 008°24'510.8
2017-Oct-05 21:00N 53°36' E 008°30'2 4.9
2017-Oct-05 20:30N 53°34' E 008°33'0 0.3
2017-Oct-05 20:01N 53°34' E 008°33'0 0.9
2017-Oct-05 19:28N 53°35' E 008°34'0 0.0
2017-Oct-05 18:58N 53°35' E 008°34'0 0.0
2017-Oct-05 18:28N 53°35' E 008°34'0 0.0
2017-Oct-05 17:58N 53°35' E 008°34'0 0.0
2017-Oct-05 17:25N 53°35' E 008°34'0 0.0
2017-Oct-05 16:58N 53°35' E 008°34'0 0.0
2017-Oct-05 15:28N 53°35' E 008°34'0 0.0
2017-Oct-05 14:58N 53°35' E 008°34'0 0.0
2017-Oct-05 14:28N 53°35' E 008°34'0 0.0
2017-Oct-05 13:58N 53°35' E 008°34'0 0.0
2017-Oct-05 13:28N 53°35' E 008°34'0 0.0
2017-Oct-05 12:58N 53°35' E 008°34'0 0.0
2017-Oct-05 12:28N 53°35' E 008°34'0 0.0
2017-Oct-05 11:58N 53°35' E 008°34'0 0.0
2017-Oct-05 11:28N 53°35' E 008°34'0 0.0
2017-Oct-05 10:58N 53°35' E 008°34'0 0.0
2017-Oct-05 10:28N 53°35' E 008°34'0 0.0
2017-Oct-05 09:58N 53°35' E 008°34'0 0.0
2017-Oct-05 09:28N 53°35' E 008°34'0 0.0
2017-Oct-05 08:58N 53°35' E 008°34'0 0.0
2017-Oct-05 08:28N 53°35' E 008°34'0 0.0
2017-Oct-05 07:58N 53°35' E 008°34'0 0.0
2017-Oct-05 07:28N 53°35' E 008°34'0 0.0
2017-Oct-05 06:58N 53°35' E 008°34'0 0.6
2017-Oct-05 06:30N 53°34' E 008°33'0 0.5
2017-Oct-05 06:00N 53°34' E 008°33'0 0.7
2017-Oct-05 05:30N 53°34' E 008°33'3 5.2
2017-Oct-05 05:00N 53°36' E 008°30'510.3
2017-Oct-05 04:30N 53°39' E 008°24'5 9.6
2017-Oct-05 04:00N 53°43' E 008°18'510.2
2017-Oct-05 03:30N 53°46' E 008°11'5 9.8
2017-Oct-05 03:00N 53°50' E 008°06'4 8.6
2017-Oct-05 02:30N 53°51' E 007°59'4 8.3
2017-Oct-05 02:00N 53°52' E 007°52'4 8.5
2017-Oct-05 01:30N 53°53' E 007°45'5 9.3
2017-Oct-05 01:00N 53°52' E 007°37'1 0.8
2017-Oct-05 00:22N 53°52' E 007°38'1 3.3
2017-Oct-05 00:00N 53°53' E 007°39'38 4.0
2017-Oct-04 14:24N 53°29' E 006°49'615.6
2017-Oct-04 14:01N 53°25' E 006°56'713.6
2017-Oct-04 13:31N 53°19' E 007°04'4 7.3
2017-Oct-04 12:55N 53°20' E 007°11'0 0.0
2017-Oct-04 12:01N 53°20' E 007°11'0 0.0
2017-Oct-04 11:46N 53°20' E 007°11'0 0.0
2017-Oct-04 11:30N 53°20' E 007°11'0 0.0
2017-Oct-04 10:59N 53°20' E 007°11'0 0.0
2017-Oct-04 10:28N 53°20' E 007°11'0 0.0
2017-Oct-04 09:58N 53°20' E 007°11'0 0.0
2017-Oct-04 09:26N 53°20' E 007°11'0 0.0
2017-Oct-04 08:59N 53°20' E 007°11'0 0.0
2017-Oct-04 06:34N 53°20' E 007°11'0 0.0
2017-Oct-04 06:26N 53°20' E 007°11'0 0.0
2017-Oct-04 05:50N 53°20' E 007°11'0 0.0
2017-Oct-04 05:28N 53°20' E 007°11'0 0.0
2017-Oct-04 04:59N 53°20' E 007°11'0 0.0
2017-Oct-04 04:30N 53°20' E 007°11'0 0.0
2017-Oct-04 04:00N 53°20' E 007°11'0 0.0
2017-Oct-04 03:29N 53°20' E 007°11'0 0.0
2017-Oct-04 03:00N 53°20' E 007°11'0 0.0
2017-Oct-04 02:28N 53°20' E 007°11'0 0.0
2017-Oct-04 01:59N 53°20' E 007°11'0 0.0
2017-Oct-04 01:30N 53°20' E 007°11'0 0.0
2017-Oct-04 01:00N 53°20' E 007°11'0 0.0
2017-Oct-04 00:26N 53°20' E 007°11'0 0.0
2017-Oct-04 00:00N 53°20' E 007°11'0 0.0
2017-Oct-03 23:30N 53°20' E 007°11'0 0.0
2017-Oct-03 23:00N 53°20' E 007°11'0 0.0
2017-Oct-03 22:30N 53°20' E 007°11'0 0.0
2017-Oct-03 21:58N 53°20' E 007°11'0 0.0
2017-Oct-03 21:30N 53°20' E 007°11'0 0.0
2017-Oct-03 21:00N 53°20' E 007°11'0 0.0
2017-Oct-03 20:29N 53°20' E 007°11'0 0.0
2017-Oct-03 19:59N 53°20' E 007°11'0 0.0
2017-Oct-03 19:29N 53°20' E 007°11'1 1.5
2017-Oct-03 19:00N 53°20' E 007°09'510.2
2017-Oct-03 18:30N 53°19' E 007°01'713.9
2017-Oct-03 18:00N 53°26' E 006°55'814.3
2017-Oct-03 17:26N 53°31' E 006°46'5212.0
2017-Oct-03 13:06N 53°32' E 005°18'215.0
2017-Oct-03 12:57N 53°32' E 005°14'614.4
2017-Oct-03 12:30N 53°29' E 005°04'714.7
2017-Oct-03 12:00N 53°26' E 004°53'714.5
2017-Oct-03 11:30N 53°23' E 004°42'1014.4
2017-Oct-03 10:50N 53°14' E 004°35'514.2
2017-Oct-03 10:30N 53°10' E 004°31'714.3
2017-Oct-03 10:00N 53°04' E 004°25'714.2
2017-Oct-03 09:30N 52°58' E 004°19'714.0
2017-Oct-03 09:00N 52°51' E 004°15'714.0
2017-Oct-03 08:30N 52°46' E 004°08'814.2
2017-Oct-03 07:55N 52°39' E 003°60'614.2
2017-Oct-03 07:30N 52°35' E 003°53'1714.1
2017-Oct-03 06:18N 52°23' E 003°33'4114.5
2017-Oct-03 03:28N 51°53' E 002°48'715.4
2017-Oct-03 03:00N 51°46' E 002°42'714.0
2017-Oct-03 02:30N 51°40' E 002°43'815.1
2017-Oct-03 02:00N 51°32' E 002°42'815.0
2017-Oct-03 01:28N 51°24' E 002°44'4 9.2
2017-Oct-03 01:00N 51°22' E 002°50'714.9
2017-Oct-03 00:30N 51°24' E 003°01'713.5
2017-Oct-03 00:00N 51°22' E 003°12'2 3.7
2017-Oct-02 23:30N 51°20' E 003°13'0 0.0
2017-Oct-02 23:00N 51°20' E 003°13'2 3.3
2017-Oct-02 22:31N 51°19' E 003°14'0 0.3
2017-Oct-02 21:58N 51°18' E 003°14'0 0.0
2017-Oct-02 21:28N 51°18' E 003°14'0 0.0
2017-Oct-02 20:58N 51°18' E 003°14'0 0.0
2017-Oct-02 20:28N 51°18' E 003°14'0 0.0
2017-Oct-02 19:58N 51°18' E 003°14'0 0.0
2017-Oct-02 19:28N 51°18' E 003°14'0 0.0
2017-Oct-02 18:58N 51°18' E 003°14'0 0.0
2017-Oct-02 18:28N 51°18' E 003°14'0 0.0
2017-Oct-02 17:58N 51°18' E 003°14'0 0.0
2017-Oct-02 17:25N 51°18' E 003°14'0 0.0
2017-Oct-02 16:58N 51°18' E 003°14'0 0.0
2017-Oct-02 16:28N 51°18' E 003°14'0 0.0
2017-Oct-02 15:58N 51°18' E 003°14'0 0.0
2017-Oct-02 15:22N 51°18' E 003°14'0 0.0
2017-Oct-02 14:58N 51°18' E 003°14'0 0.0
2017-Oct-02 14:28N 51°18' E 003°14'0 0.0
2017-Oct-02 13:58N 51°18' E 003°14'0 0.0
2017-Oct-02 13:28N 51°18' E 003°14'0 0.0
2017-Oct-02 12:58N 51°18' E 003°14'0 0.0
2017-Oct-02 12:28N 51°18' E 003°14'0 0.5
2017-Oct-02 12:00N 51°18' E 003°14'1 1.1
2017-Oct-02 11:30N 51°18' E 003°14'0 0.0
2017-Oct-02 11:00N 51°18' E 003°14'0 0.0
2017-Oct-02 10:30N 51°18' E 003°14'0 0.0
2017-Oct-02 10:00N 51°18' E 003°14'0 0.0
2017-Oct-02 09:30N 51°18' E 003°14'0 0.0
2017-Oct-02 09:00N 51°18' E 003°14'0 0.0
2017-Oct-02 08:30N 51°18' E 003°14'0 0.0
2017-Oct-02 08:00N 51°18' E 003°14'0 0.0
2017-Oct-02 07:30N 51°18' E 003°14'0 0.0
2017-Oct-02 07:00N 51°18' E 003°14'0 0.0
2017-Oct-02 06:30N 51°18' E 003°14'0 0.0
2017-Oct-02 06:00N 51°18' E 003°14'0 0.0
2017-Oct-02 05:30N 51°18' E 003°14'0 0.0
2017-Oct-02 05:00N 51°18' E 003°14'0 0.0
2017-Oct-02 04:30N 51°18' E 003°14'0 0.0
2017-Oct-02 04:00N 51°18' E 003°14'0 0.0
2017-Oct-02 03:30N 51°18' E 003°14'0 0.0
2017-Oct-02 03:00N 51°18' E 003°14'0 0.0
2017-Oct-02 02:30N 51°18' E 003°14'0 0.0
2017-Oct-02 02:00N 51°18' E 003°14'0 0.0
2017-Oct-02 01:30N 51°18' E 003°14'0 0.0
2017-Oct-02 01:00N 51°18' E 003°14'0 0.0
2017-Oct-02 00:30N 51°18' E 003°14'0 0.0
2017-Oct-02 00:01N 51°18' E 003°14'0 0.0
2017-Oct-01 23:30N 51°18' E 003°14'0 0.0
2017-Oct-01 23:00N 51°18' E 003°14'0 0.0
2017-Oct-01 22:30N 51°18' E 003°14'0 0.0
2017-Oct-01 22:00N 51°18' E 003°14'0 0.0
2017-Oct-01 21:30N 51°18' E 003°14'0 0.0
2017-Oct-01 21:00N 51°18' E 003°14'0 0.0
2017-Oct-01 20:30N 51°18' E 003°14'0 0.0
2017-Oct-01 20:00N 51°18' E 003°14'0 0.0
2017-Oct-01 19:30N 51°18' E 003°14'0 0.0
2017-Oct-01 19:00N 51°18' E 003°14'0 0.0
2017-Oct-01 18:30N 51°18' E 003°14'0 0.0
2017-Oct-01 18:00N 51°18' E 003°14'0 0.0
2017-Oct-01 17:30N 51°18' E 003°14'0 0.0
2017-Oct-01 17:00N 51°18' E 003°14'0 0.0
2017-Oct-01 16:30N 51°18' E 003°14'0 0.0
2017-Oct-01 16:00N 51°18' E 003°14'0 0.0
2017-Oct-01 15:30N 51°18' E 003°14'0 0.0
2017-Oct-01 15:00N 51°18' E 003°14'0 0.0
2017-Oct-01 14:30N 51°18' E 003°14'0 0.0
2017-Oct-01 14:00N 51°18' E 003°14'0 0.0
2017-Oct-01 13:30N 51°18' E 003°14'0 0.0
2017-Oct-01 13:00N 51°18' E 003°14'0 0.0
2017-Oct-01 12:30N 51°18' E 003°14'0 0.0
2017-Oct-01 12:00N 51°18' E 003°14'0 0.0
2017-Oct-01 11:30N 51°18' E 003°14'0 0.0
2017-Oct-01 11:00N 51°18' E 003°14'0 0.0
2017-Oct-01 10:30N 51°18' E 003°14'0 0.0
2017-Oct-01 10:00N 51°18' E 003°14'0 0.0
2017-Oct-01 09:30N 51°18' E 003°14'1 3.0
2017-Oct-01 09:01N 51°19' E 003°13'1 1.8
2017-Oct-01 08:30N 51°20' E 003°13'1 1.6
2017-Oct-01 08:00N 51°21' E 003°12'5 9.5
2017-Oct-01 07:30N 51°24' E 003°07'816.5
2017-Oct-01 07:00N 51°22' E 002°54'713.5
2017-Oct-01 06:30N 51°23' E 002°43'5 8.6
2017-Oct-01 05:57N 51°25' E 002°36'1 1.7
2017-Oct-01 05:21N 51°25' E 002°35'0 0.0
2017-Oct-01 04:55N 51°25' E 002°35'0 0.0
2017-Oct-01 04:22N 51°25' E 002°35'117 4.4
2017-Sep-30 02:00N 50°20' E 000°01'816.6
2017-Sep-30 01:30N 50°18' W 000°12'3616.2
2017-Sep-29 23:16N 50°08' W 001°07'415.6
2017-Sep-29 22:59N 50°07' W 001°13'715.6
2017-Sep-29 22:31N 50°05' W 001°24'815.4
2017-Sep-29 22:00N 50°03' W 001°36'714.9
2017-Sep-29 21:30N 50°01' W 001°47'714.9
2017-Sep-29 21:01N 49°59' W 001°58'714.6
2017-Sep-29 20:30N 49°57' W 002°09'1614.8
2017-Sep-29 19:26N 49°53' W 002°33'615.1
2017-Sep-29 19:00N 49°51' W 002°43'815.3
2017-Sep-29 18:31N 49°50' W 002°54'815.5
2017-Sep-29 17:59N 49°48' W 003°06'815.4
2017-Sep-29 17:30N 49°44' W 003°17'815.5
2017-Sep-29 16:57N 49°40' W 003°28'6415.4
2017-Sep-29 12:46N 49°06' W 004°52'515.2
2017-Sep-29 12:26N 49°03' W 004°59'615.1
2017-Sep-29 12:00N 48°59' W 005°07'815.4
2017-Sep-29 11:30N 48°55' W 005°17'815.8
2017-Sep-29 11:01N 48°51' W 005°27'2215.2
2017-Sep-29 09:34N 48°33' W 005°46'215.7
2017-Sep-29 09:24N 48°31' W 005°48'  
Track history (hours):
 
Tides and Currents Weather Stations Pressure Air Temp Water Temp Dewpoint Dewpoint Depression Visibility Wind Speed Wind Dir Waves Ship Positions

American Highway

Last reported at 2017-Oct-09 08:31 UTC. Time now 2017-Oct-17 17:12 UTC.
Position N 50°49' W 006°11'.
Warning: this ship's position is 8 days out of date.

Length 180 m; draft 8.9 m.

Type: Cargo ship. MMSI: 351124000.

Date/timePositionNaut miles runAvg speedWind from/ knotsBaromVisibWave heightAir tempDewpointWater temp
2017-Oct-09 08:31N 50°49' W 006°11'1014.9
2017-Oct-09 07:52N 50°53' W 005°57'514.7
2017-Oct-09 07:30N 50°55' W 005°50'714.6
2017-Oct-09 07:00N 50°58' W 005°39'714.4
2017-Oct-09 06:30N 51°01' W 005°28'714.2
2017-Oct-09 06:01N 51°04' W 005°18'714.2
2017-Oct-09 05:31N 51°07' W 005°08'714.1
2017-Oct-09 05:00N 51°10' W 004°58'714.1
2017-Oct-09 04:31N 51°13' W 004°48'713.6
2017-Oct-09 04:01N 51°15' W 004°37'714.4
2017-Oct-09 03:31N 51°17' W 004°26'714.6
2017-Oct-09 03:01N 51°17' W 004°15'915.3
2017-Oct-09 02:24N 51°18' W 003°60'1117.0
2017-Oct-09 01:44N 51°19' W 003°42'1218.3
2017-Oct-09 01:04N 51°21' W 003°23'118.8
2017-Oct-09 01:00N 51°21' W 003°21'612.8
2017-Oct-09 00:30N 51°22' W 003°10'917.4
2017-Oct-09 00:01N 51°27' W 002°59'917.8
2017-Oct-08 23:30N 51°30' W 002°46'1 2.9
2017-Oct-08 23:00N 51°30' W 002°44'0 1.0
2017-Oct-08 22:30N 51°30' W 002°43'0 0.0
2017-Oct-08 22:00N 51°30' W 002°43'0 0.0
2017-Oct-08 21:30N 51°30' W 002°43'0 0.0
2017-Oct-08 21:00N 51°30' W 002°43'0 0.0
2017-Oct-08 20:30N 51°30' W 002°43'0 0.0
2017-Oct-08 20:00N 51°30' W 002°43'0 0.0
2017-Oct-08 19:30N 51°30' W 002°43'0 0.0
2017-Oct-08 19:00N 51°30' W 002°43'0 0.0
2017-Oct-08 18:30N 51°30' W 002°43'0 0.0
2017-Oct-08 18:00N 51°30' W 002°43'0 0.0
2017-Oct-08 17:30N 51°30' W 002°43'0 0.0
2017-Oct-08 17:00N 51°30' W 002°43'0 0.0
2017-Oct-08 16:30N 51°30' W 002°43'0 0.0
2017-Oct-08 16:00N 51°30' W 002°43'0 0.0
2017-Oct-08 15:30N 51°30' W 002°43'0 0.0
2017-Oct-08 15:00N 51°30' W 002°43'0 0.0
2017-Oct-08 14:30N 51°30' W 002°43'0 0.0
2017-Oct-08 14:00N 51°30' W 002°43'0 0.0
2017-Oct-08 13:30N 51°30' W 002°43'0 0.0
2017-Oct-08 13:00N 51°30' W 002°43'0 0.0
2017-Oct-08 12:30N 51°30' W 002°43'0 0.0
2017-Oct-08 12:00N 51°30' W 002°43'0 0.0
2017-Oct-08 11:30N 51°30' W 002°43'0 0.0
2017-Oct-08 11:00N 51°30' W 002°43'0 0.0
2017-Oct-08 10:30N 51°30' W 002°43'0 0.0
2017-Oct-08 09:58N 51°30' W 002°43'0 0.0
2017-Oct-08 09:28N 51°30' W 002°43'0 0.0
2017-Oct-08 08:58N 51°30' W 002°43'0 0.0
2017-Oct-08 08:28N 51°30' W 002°43'0 0.0
2017-Oct-08 07:58N 51°30' W 002°43'0 0.0
2017-Oct-08 07:28N 51°30' W 002°43'0 0.3
2017-Oct-08 07:00N 51°30' W 002°43'0 0.7
2017-Oct-08 06:30N 51°30' W 002°43'0 0.8
2017-Oct-08 06:01N 51°30' W 002°44'1 2.0
2017-Oct-08 05:30N 51°30' W 002°46'714.4
2017-Oct-08 05:00N 51°27' W 002°56'713.1
2017-Oct-08 04:31N 51°23' W 003°04'612.2
2017-Oct-08 04:01N 51°21' W 003°14'3411.0
2017-Oct-08 00:58N 51°17' W 004°07'713.1
2017-Oct-08 00:24N 51°15' W 004°18'813.2
2017-Oct-07 23:46N 51°09' W 004°28'313.1
2017-Oct-07 23:30N 51°07' W 004°33'612.4
2017-Oct-07 23:00N 51°03' W 004°40'613.1
2017-Oct-07 22:30N 50°58' W 004°47'713.7
2017-Oct-07 22:00N 50°54' W 004°55'714.2
2017-Oct-07 21:30N 50°49' W 005°04'714.2
2017-Oct-07 21:00N 50°44' W 005°12'714.5
2017-Oct-07 20:30N 50°39' W 005°20'714.8
2017-Oct-07 20:01N 50°34' W 005°29'815.1
2017-Oct-07 19:31N 50°29' W 005°38'815.5
2017-Oct-07 19:00N 50°24' W 005°47'714.8
2017-Oct-07 18:30N 50°18' W 005°53'715.1
2017-Oct-07 18:00N 50°11' W 005°53'815.3
2017-Oct-07 17:30N 50°03' W 005°53'1013.7
2017-Oct-07 16:46N 49°56' W 005°41'414.6
2017-Oct-07 16:28N 49°54' W 005°35'1614.1
2017-Oct-07 15:20N 49°52' W 005°10'514.3
2017-Oct-07 15:00N 49°52' W 005°03'713.6
2017-Oct-07 14:30N 49°52' W 004°52'714.4
2017-Oct-07 14:01N 49°54' W 004°42'915.9
2017-Oct-07 13:28N 49°55' W 004°29'916.3
2017-Oct-07 12:56N 49°56' W 004°15'1116.4
2017-Oct-07 12:15N 49°57' W 003°58'416.5
2017-Oct-07 11:59N 49°58' W 003°51'816.2
2017-Oct-07 11:31N 49°57' W 003°39'815.7
2017-Oct-07 11:01N 49°58' W 003°27'815.1
2017-Oct-07 10:31N 49°59' W 003°15'714.5
2017-Oct-07 10:01N 50°00' W 003°04'713.7
2017-Oct-07 09:30N 50°01' W 002°53'613.0
2017-Oct-07 09:00N 50°02' W 002°43'6813.9
2017-Oct-07 04:08N 50°20' W 001°01'2818.0
2017-Oct-07 02:35N 50°27' W 000°19'117.4
2017-Oct-07 02:31N 50°27' W 000°17'916.9
2017-Oct-07 02:00N 50°30' W 000°04'816.6
2017-Oct-07 01:30N 50°32' E 000°08'816.2
2017-Oct-07 01:00N 50°34' E 000°20'815.8
2017-Oct-07 00:30N 50°36' E 000°32'815.1
2017-Oct-07 00:01N 50°40' E 000°43'714.6
2017-Oct-06 23:30N 50°44' E 000°52'714.4
2017-Oct-06 23:00N 50°48' E 001°02'1014.5
2017-Oct-06 22:18N 50°54' E 001°15'515.3
2017-Oct-06 21:58N 50°57' E 001°21'816.9
2017-Oct-06 21:30N 51°03' E 001°30'918.5
2017-Oct-06 21:01N 51°10' E 001°40'918.6
2017-Oct-06 20:31N 51°17' E 001°48'918.3
2017-Oct-06 20:01N 51°25' E 001°56'917.5
2017-Oct-06 19:30N 51°31' E 002°06'917.0
2017-Oct-06 19:00N 51°37' E 002°16'11114.4
2017-Oct-06 11:16N 53°04' E 004°10'415.1
2017-Oct-06 10:59N 53°06' E 004°15'815.3
2017-Oct-06 10:29N 53°12' E 004°24'1315.3
2017-Oct-06 09:40N 53°23' E 004°34'315.0
2017-Oct-06 09:30N 53°25' E 004°36'713.9
2017-Oct-06 09:00N 53°29' E 004°45'713.3
2017-Oct-06 08:31N 53°32' E 004°55'612.6
2017-Oct-06 08:00N 53°34' E 005°05'712.1
2017-Oct-06 07:28N 53°36' E 005°15'9411.7
2017-Oct-05 23:27N 53°52' E 007°52'512.1
2017-Oct-05 23:00N 53°51' E 008°00'612.2
2017-Oct-05 22:30N 53°48' E 008°09'612.2
2017-Oct-05 22:00N 53°44' E 008°16'611.9
2017-Oct-05 21:30N 53°39' E 008°24'510.8
2017-Oct-05 21:00N 53°36' E 008°30'2 4.9
2017-Oct-05 20:30N 53°34' E 008°33'0 0.3
2017-Oct-05 20:01N 53°34' E 008°33'0 0.9
2017-Oct-05 19:28N 53°35' E 008°34'0 0.0
2017-Oct-05 18:58N 53°35' E 008°34'0 0.0
2017-Oct-05 18:28N 53°35' E 008°34'0 0.0
2017-Oct-05 17:58N 53°35' E 008°34'0 0.0
2017-Oct-05 17:25N 53°35' E 008°34'0 0.0
2017-Oct-05 16:58N 53°35' E 008°34'0 0.0
2017-Oct-05 15:28N 53°35' E 008°34'0 0.0
2017-Oct-05 14:58N 53°35' E 008°34'0 0.0
2017-Oct-05 14:28N 53°35' E 008°34'0 0.0
2017-Oct-05 13:58N 53°35' E 008°34'0 0.0
2017-Oct-05 13:28N 53°35' E 008°34'0 0.0
2017-Oct-05 12:58N 53°35' E 008°34'0 0.0
2017-Oct-05 12:28N 53°35' E 008°34'0 0.0
2017-Oct-05 11:58N 53°35' E 008°34'0 0.0
2017-Oct-05 11:28N 53°35' E 008°34'0 0.0
2017-Oct-05 10:58N 53°35' E 008°34'0 0.0
2017-Oct-05 10:28N 53°35' E 008°34'0 0.0
2017-Oct-05 09:58N 53°35' E 008°34'0 0.0
2017-Oct-05 09:28N 53°35' E 008°34'0 0.0
2017-Oct-05 08:58N 53°35' E 008°34'0 0.0
2017-Oct-05 08:28N 53°35' E 008°34'0 0.0
2017-Oct-05 07:58N 53°35' E 008°34'0 0.0
2017-Oct-05 07:28N 53°35' E 008°34'0 0.0
2017-Oct-05 06:58N 53°35' E 008°34'0 0.6
2017-Oct-05 06:30N 53°34' E 008°33'0 0.5
2017-Oct-05 06:00N 53°34' E 008°33'0 0.7
2017-Oct-05 05:30N 53°34' E 008°33'3 5.2
2017-Oct-05 05:00N 53°36' E 008°30'510.3
2017-Oct-05 04:30N 53°39' E 008°24'5 9.6
2017-Oct-05 04:00N 53°43' E 008°18'510.2
2017-Oct-05 03:30N 53°46' E 008°11'5 9.8
2017-Oct-05 03:00N 53°50' E 008°06'4 8.6
2017-Oct-05 02:30N 53°51' E 007°59'4 8.3
2017-Oct-05 02:00N 53°52' E 007°52'4 8.5
2017-Oct-05 01:30N 53°53' E 007°45'5 9.3
2017-Oct-05 01:00N 53°52' E 007°37'1 0.8
2017-Oct-05 00:22N 53°52' E 007°38'1 3.3
2017-Oct-05 00:00N 53°53' E 007°39'38 4.0
2017-Oct-04 14:24N 53°29' E 006°49'615.6
2017-Oct-04 14:01N 53°25' E 006°56'713.6
2017-Oct-04 13:31N 53°19' E 007°04'4 7.3
2017-Oct-04 12:55N 53°20' E 007°11'0 0.0
2017-Oct-04 12:01N 53°20' E 007°11'0 0.0
2017-Oct-04 11:46N 53°20' E 007°11'0 0.0
2017-Oct-04 11:30N 53°20' E 007°11'0 0.0
2017-Oct-04 10:59N 53°20' E 007°11'0 0.0
2017-Oct-04 10:28N 53°20' E 007°11'0 0.0
2017-Oct-04 09:58N 53°20' E 007°11'0 0.0
2017-Oct-04 09:26N 53°20' E 007°11'0 0.0
2017-Oct-04 08:59N 53°20' E 007°11'0 0.0
2017-Oct-04 06:34N 53°20' E 007°11'0 0.0
2017-Oct-04 06:26N 53°20' E 007°11'0 0.0
2017-Oct-04 05:50N 53°20' E 007°11'0 0.0
2017-Oct-04 05:28N 53°20' E 007°11'0 0.0
2017-Oct-04 04:59N 53°20' E 007°11'0 0.0
2017-Oct-04 04:30N 53°20' E 007°11'0 0.0
2017-Oct-04 04:00N 53°20' E 007°11'0 0.0
2017-Oct-04 03:29N 53°20' E 007°11'0 0.0
2017-Oct-04 03:00N 53°20' E 007°11'0 0.0
2017-Oct-04 02:28N 53°20' E 007°11'0 0.0
2017-Oct-04 01:59N 53°20' E 007°11'0 0.0
2017-Oct-04 01:30N 53°20' E 007°11'0 0.0
2017-Oct-04 01:00N 53°20' E 007°11'0 0.0
2017-Oct-04 00:26N 53°20' E 007°11'0 0.0
2017-Oct-04 00:00N 53°20' E 007°11'0 0.0
2017-Oct-03 23:30N 53°20' E 007°11'0 0.0
2017-Oct-03 23:00N 53°20' E 007°11'0 0.0
2017-Oct-03 22:30N 53°20' E 007°11'0 0.0
2017-Oct-03 21:58N 53°20' E 007°11'0 0.0
2017-Oct-03 21:30N 53°20' E 007°11'0 0.0
2017-Oct-03 21:00N 53°20' E 007°11'0 0.0
2017-Oct-03 20:29N 53°20' E 007°11'0 0.0
2017-Oct-03 19:59N 53°20' E 007°11'0 0.0
2017-Oct-03 19:29N 53°20' E 007°11'1 1.5
2017-Oct-03 19:00N 53°20' E 007°09'510.2
2017-Oct-03 18:30N 53°19' E 007°01'713.9
2017-Oct-03 18:00N 53°26' E 006°55'814.3
2017-Oct-03 17:26N 53°31' E 006°46'5212.0
2017-Oct-03 13:06N 53°32' E 005°18'215.0
2017-Oct-03 12:57N 53°32' E 005°14'614.4
2017-Oct-03 12:30N 53°29' E 005°04'714.7
2017-Oct-03 12:00N 53°26' E 004°53'714.5
2017-Oct-03 11:30N 53°23' E 004°42'1014.4
2017-Oct-03 10:50N 53°14' E 004°35'514.2
2017-Oct-03 10:30N 53°10' E 004°31'714.3
2017-Oct-03 10:00N 53°04' E 004°25'714.2
2017-Oct-03 09:30N 52°58' E 004°19'714.0
2017-Oct-03 09:00N 52°51' E 004°15'714.0
2017-Oct-03 08:30N 52°46' E 004°08'814.2
2017-Oct-03 07:55N 52°39' E 003°60'614.2
2017-Oct-03 07:30N 52°35' E 003°53'1714.1
2017-Oct-03 06:18N 52°23' E 003°33'4114.5
2017-Oct-03 03:28N 51°53' E 002°48'715.4
2017-Oct-03 03:00N 51°46' E 002°42'714.0
2017-Oct-03 02:30N 51°40' E 002°43'815.1
2017-Oct-03 02:00N 51°32' E 002°42'815.0
2017-Oct-03 01:28N 51°24' E 002°44'4 9.2
2017-Oct-03 01:00N 51°22' E 002°50'714.9
2017-Oct-03 00:30N 51°24' E 003°01'713.5
2017-Oct-03 00:00N 51°22' E 003°12'2 3.7
2017-Oct-02 23:30N 51°20' E 003°13'0 0.0
2017-Oct-02 23:00N 51°20' E 003°13'2 3.3
2017-Oct-02 22:31N 51°19' E 003°14'0 0.3
2017-Oct-02 21:58N 51°18' E 003°14'0 0.0
2017-Oct-02 21:28N 51°18' E 003°14'0 0.0
2017-Oct-02 20:58N 51°18' E 003°14'0 0.0
2017-Oct-02 20:28N 51°18' E 003°14'0 0.0
2017-Oct-02 19:58N 51°18' E 003°14'0 0.0
2017-Oct-02 19:28N 51°18' E 003°14'0 0.0
2017-Oct-02 18:58N 51°18' E 003°14'0 0.0
2017-Oct-02 18:28N 51°18' E 003°14'0 0.0
2017-Oct-02 17:58N 51°18' E 003°14'0 0.0
2017-Oct-02 17:25N 51°18' E 003°14'0 0.0
2017-Oct-02 16:58N 51°18' E 003°14'0 0.0
2017-Oct-02 16:28N 51°18' E 003°14'0 0.0
2017-Oct-02 15:58N 51°18' E 003°14'0 0.0
2017-Oct-02 15:22N 51°18' E 003°14'0 0.0
2017-Oct-02 14:58N 51°18' E 003°14'0 0.0
2017-Oct-02 14:28N 51°18' E 003°14'0 0.0
2017-Oct-02 13:58N 51°18' E 003°14'0 0.0
2017-Oct-02 13:28N 51°18' E 003°14'0 0.0
2017-Oct-02 12:58N 51°18' E 003°14'0 0.0
2017-Oct-02 12:28N 51°18' E 003°14'0 0.5
2017-Oct-02 12:00N 51°18' E 003°14'1 1.1
2017-Oct-02 11:30N 51°18' E 003°14'0 0.0
2017-Oct-02 11:00N 51°18' E 003°14'0 0.0
2017-Oct-02 10:30N 51°18' E 003°14'0 0.0
2017-Oct-02 10:00N 51°18' E 003°14'0 0.0
2017-Oct-02 09:30N 51°18' E 003°14'0 0.0
2017-Oct-02 09:00N 51°18' E 003°14'0 0.0
2017-Oct-02 08:30N 51°18' E 003°14'0 0.0
2017-Oct-02 08:00N 51°18' E 003°14'0 0.0
2017-Oct-02 07:30N 51°18' E 003°14'0 0.0
2017-Oct-02 07:00N 51°18' E 003°14'0 0.0
2017-Oct-02 06:30N 51°18' E 003°14'0 0.0
2017-Oct-02 06:00N 51°18' E 003°14'0 0.0
2017-Oct-02 05:30N 51°18' E 003°14'0 0.0
2017-Oct-02 05:00N 51°18' E 003°14'0 0.0
2017-Oct-02 04:30N 51°18' E 003°14'0 0.0
2017-Oct-02 04:00N 51°18' E 003°14'0 0.0
2017-Oct-02 03:30N 51°18' E 003°14'0 0.0
2017-Oct-02 03:00N 51°18' E 003°14'0 0.0
2017-Oct-02 02:30N 51°18' E 003°14'0 0.0
2017-Oct-02 02:00N 51°18' E 003°14'0 0.0
2017-Oct-02 01:30N 51°18' E 003°14'0 0.0
2017-Oct-02 01:00N 51°18' E 003°14'0 0.0
2017-Oct-02 00:30N 51°18' E 003°14'0 0.0
2017-Oct-02 00:01N 51°18' E 003°14'0 0.0
2017-Oct-01 23:30N 51°18' E 003°14'0 0.0
2017-Oct-01 23:00N 51°18' E 003°14'0 0.0
2017-Oct-01 22:30N 51°18' E 003°14'0 0.0
2017-Oct-01 22:00N 51°18' E 003°14'0 0.0
2017-Oct-01 21:30N 51°18' E 003°14'0 0.0
2017-Oct-01 21:00N 51°18' E 003°14'0 0.0
2017-Oct-01 20:30N 51°18' E 003°14'0 0.0
2017-Oct-01 20:00N 51°18' E 003°14'0 0.0
2017-Oct-01 19:30N 51°18' E 003°14'0 0.0
2017-Oct-01 19:00N 51°18' E 003°14'0 0.0
2017-Oct-01 18:30N 51°18' E 003°14'0 0.0
2017-Oct-01 18:00N 51°18' E 003°14'0 0.0
2017-Oct-01 17:30N 51°18' E 003°14'0 0.0
2017-Oct-01 17:00N 51°18' E 003°14'0 0.0
2017-Oct-01 16:30N 51°18' E 003°14'0 0.0
2017-Oct-01 16:00N 51°18' E 003°14'0 0.0
2017-Oct-01 15:30N 51°18' E 003°14'0 0.0
2017-Oct-01 15:00N 51°18' E 003°14'0 0.0
2017-Oct-01 14:30N 51°18' E 003°14'0 0.0
2017-Oct-01 14:00N 51°18' E 003°14'0 0.0
2017-Oct-01 13:30N 51°18' E 003°14'0 0.0
2017-Oct-01 13:00N 51°18' E 003°14'0 0.0
2017-Oct-01 12:30N 51°18' E 003°14'0 0.0
2017-Oct-01 12:00N 51°18' E 003°14'0 0.0
2017-Oct-01 11:30N 51°18' E 003°14'0 0.0
2017-Oct-01 11:00N 51°18' E 003°14'0 0.0
2017-Oct-01 10:30N 51°18' E 003°14'0 0.0
2017-Oct-01 10:00N 51°18' E 003°14'0 0.0
2017-Oct-01 09:30N 51°18' E 003°14'1 3.0
2017-Oct-01 09:01N 51°19' E 003°13'1 1.8
2017-Oct-01 08:30N 51°20' E 003°13'1 1.6
2017-Oct-01 08:00N 51°21' E 003°12'5 9.5
2017-Oct-01 07:30N 51°24' E 003°07'816.5
2017-Oct-01 07:00N 51°22' E 002°54'713.5
2017-Oct-01 06:30N 51°23' E 002°43'5 8.6
2017-Oct-01 05:57N 51°25' E 002°36'1 1.7
2017-Oct-01 05:21N 51°25' E 002°35'0 0.0
2017-Oct-01 04:55N 51°25' E 002°35'0 0.0
2017-Oct-01 04:22N 51°25' E 002°35'117 4.4
2017-Sep-30 02:00N 50°20' E 000°01'816.6
2017-Sep-30 01:30N 50°18' W 000°12'3616.2
2017-Sep-29 23:16N 50°08' W 001°07'415.6
2017-Sep-29 22:59N 50°07' W 001°13'715.6
2017-Sep-29 22:31N 50°05' W 001°24'815.4
2017-Sep-29 22:00N 50°03' W 001°36'714.9
2017-Sep-29 21:30N 50°01' W 001°47'714.9
2017-Sep-29 21:01N 49°59' W 001°58'714.6
2017-Sep-29 20:30N 49°57' W 002°09'1614.8
2017-Sep-29 19:26N 49°53' W 002°33'615.1
2017-Sep-29 19:00N 49°51' W 002°43'815.3
2017-Sep-29 18:31N 49°50' W 002°54'815.5
2017-Sep-29 17:59N 49°48' W 003°06'815.4
2017-Sep-29 17:30N 49°44' W 003°17'815.5
2017-Sep-29 16:57N 49°40' W 003°28'6415.4
2017-Sep-29 12:46N 49°06' W 004°52'515.2
2017-Sep-29 12:26N 49°03' W 004°59'615.1
2017-Sep-29 12:00N 48°59' W 005°07'815.4
2017-Sep-29 11:30N 48°55' W 005°17'815.8
2017-Sep-29 11:01N 48°51' W 005°27'2215.2
2017-Sep-29 09:34N 48°33' W 005°46'215.7
2017-Sep-29 09:24N 48°31' W 005°48'  

Dump ship's entire track history